Nearby METAR Reports

 

KSJC - San Jose, California, USA
Distance from station: NE 14km
Updated: 07/02/2023 14:53
Clear
Clear
 Wind from SSE
Wind: SSE 6 km/h
Temperature: 4°C
Dew Point: 2°C
Humidity: 87%
Barometer: 1027.1 hPa
Clouds: Clear
Visibility: 16 km
2023/02/07 12:53 KSJC 071253Z AUTO 15003KT 10SM CLR 04/02 A3033 RMK AO2 SLP271 T00440017
KNUQ - Moffett Nas/Mtn, California, USA
Distance from station: N 14km
Updated: 07/02/2023 15:35
Clear
Clear
 Wind from calm
Wind: Calm
Temperature: 4°C
Dew Point: 2°C
Humidity: 87%
Barometer: 1027.4 hPa
Clouds: Clear
Visibility: 16 km
2023/02/07 13:35 KNUQ 071335Z AUTO 00000KT 10SM CLR 04/02 A3034 RMK AO2
 
KPAO - Palo Alto, California, USA
Distance from station: NNW 23km
Updated: 07/02/2023 06:47
NOT Current
Few Clouds
Few Clouds
 Wind from calm
Wind: Calm
Temperature: 7°C
Dew Point: 4°C
Humidity: 81%
Barometer: 1027.8 hPa
Clouds: Few Clouds
Visibility: 16 km
Cloud details: Few Clouds 6096 m
2023/02/07 04:47 KPAO 070447Z 00000KT 10SM FEW200 07/04 A3035 RMK LAST
KRHV - San Jose/Reid, California, USA
Distance from station: ENE 19km
Updated: 07/02/2023 06:50
NOT Current
Few Clouds
Few Clouds
 Wind from E
Wind: E 6 km/h
Temperature: 9°C
Dew Point: 4°C
Humidity: 71%
Barometer: 1027.8 hPa
Clouds: Few Clouds
Visibility: 16 km
Cloud details: Few Clouds 3353 m
2023/02/07 04:50 KRHV 070450Z 08003KT 10SM FEW110 09/04 A3035
 
KOAK - Oakland, California, USA
Distance from station: NNW 50km
Updated: 07/02/2023 14:53
Few Clouds
Few Clouds
 Wind from SE
Wind: SE 6 km/h
Temperature: 5°C
Dew Point: 2°C
Humidity: 81%
Barometer: 1027.4 hPa
Clouds: Few Clouds
Visibility: 16 km
Cloud details: Few Clouds 305 m
2023/02/07 12:53 KOAK 071253Z 13003KT 10SM FEW010 05/02 A3034 RMK AO2 SLP274 T00500022
KSQL - San Carlos Airpo, California, USA
Distance from station: NW 34km
Updated: 07/02/2023 15:35
Clear
Clear
 Wind from calm
Wind: Calm
Temperature: 5°C
Dew Point: 3°C
Humidity: 87%
Barometer: 1027.8 hPa
Clouds: Clear
Visibility: 16 km
2023/02/07 13:35 KSQL 071335Z AUTO 00000KT 10SM CLR 05/03 A3035 RMK AO2
 
KSFO - San Francisco, California, USA
Distance from station: NW 49km
Updated: 07/02/2023 14:56
Clear
Clear
 Wind from calm
Wind: Calm
Temperature: 7°C
Dew Point: 4°C
Humidity: 81%
Barometer: 1027.1 hPa
Clouds: Clear
Visibility: 16 km
2023/02/07 12:56 KSFO 071256Z 00000KT 10SM CLR 07/04 A3033 RMK AO2 SLP269 T00670044
KE16 - San Martin, California, USA
Distance from station: ESE 43km
Updated: 07/02/2023 15:35
Clear
Clear
 Wind from calm
Wind: Calm
Temperature: 2°C
Dew Point: 2°C
Humidity: 100%
Barometer: 1028.4 hPa
Clouds: Clear
Visibility: 16 km
2023/02/07 13:35 KE16 071335Z AUTO 00000KT 10SM CLR 02/02 A3037 RMK AO2
 
KWVI - Watsonville, California, USA
Distance from station: SSE 44km
Updated: 07/02/2023 14:53
Clear
Clear
 Wind from calm
Wind: Calm
Temperature: 2°C
Dew Point: 2°C
Humidity: 100%
Barometer: 1027.4 hPa
Clouds: Clear
Visibility: 16 km
2023/02/07 12:53 KWVI 071253Z AUTO 00000KT 10SM CLR 02/02 A3034 RMK AO2 SLP275 T00220017
KHAF - Half Moon Bay, California, USA
Distance from station: WNW 50km
Updated: 07/02/2023 15:35
Overcast
Overcast
 Wind from calm
Wind: Calm
Temperature: 5°C
Dew Point: 4°C
Humidity: 93%
Barometer: 1027.4 hPa
Clouds: Overcast
Visibility: 13 km
Cloud details: Overcast 213 m
2023/02/07 13:35 KHAF 071335Z AUTO 00000KT 8SM OVC007 05/04 A3034 RMK AO2
 
KHWD - Hayward, California, USA
Distance from station: N 44km
Updated: 07/02/2023 14:54
Clear
Clear
 Wind from ENE
Wind: ENE 9 km/h
Temperature: 6°C
Wind Chill: 4°C
Dew Point: 3°C
Humidity: 81%
Barometer: 1027.1 hPa
Clouds: Clear
Visibility: 16 km
2023/02/07 12:54 KHWD 071254Z AUTO 07005KT 10SM CLR 06/03 A3033 RMK AO2 SLP280 T00560028
KLVK - Livermore, California, USA
Distance from station: NNE 51km
Updated: 07/02/2023 14:53
Clear
Clear
 Wind from WSW
Wind: WSW 7 km/h
Temperature: 3°C
Wind Chill: 1°C
Dew Point: 2°C
Humidity: 93%
Barometer: 1026.8 hPa
Clouds: Clear
Visibility: 16 km
2023/02/07 12:53 KLVK 071253Z AUTO 24004KT 10SM CLR 03/02 A3032 RMK AO2 SLP266 T00330017